sensor_id;sensor_type;location;lat;lon;timestamp;P1;P2;P0
78512;PMS5003;67809;55.034;73.462;2024-01-30T00:00:04;34.67;27.00;15.67
78512;PMS5003;67809;55.034;73.462;2024-01-30T00:02:51;33.50;25.00;15.50
78512;PMS5003;67809;55.034;73.462;2024-01-30T00:05:17;38.50;29.25;17.50
78512;PMS5003;67809;55.034;73.462;2024-01-30T00:07:43;36.50;27.75;16.25
78512;PMS5003;67809;55.034;73.462;2024-01-30T00:10:09;36.00;29.00;18.00
78512;PMS5003;67809;55.034;73.462;2024-01-30T00:12:35;39.25;29.00;17.25
78512;PMS5003;67809;55.034;73.462;2024-01-30T00:15:09;42.00;30.50;18.00
78512;PMS5003;67809;55.034;73.462;2024-01-30T00:17:36;43.00;32.00;19.00
78512;PMS5003;67809;55.034;73.462;2024-01-30T00:20:03;39.75;29.25;18.50
78512;PMS5003;67809;55.034;73.462;2024-01-30T00:22:31;40.00;30.25;19.00
78512;PMS5003;67809;55.034;73.462;2024-01-30T00:24:58;47.50;33.25;19.50
78512;PMS5003;67809;55.034;73.462;2024-01-30T00:27:30;45.50;34.00;20.00
78512;PMS5003;67809;55.034;73.462;2024-01-30T00:29:56;52.00;37.00;21.00
78512;PMS5003;67809;55.034;73.462;2024-01-30T00:32:22;49.00;35.50;21.00
78512;PMS5003;67809;55.034;73.462;2024-01-30T00:34:49;46.75;36.25;23.00
78512;PMS5003;67809;55.034;73.462;2024-01-30T00:37:15;48.25;34.00;22.00
78512;PMS5003;67809;55.034;73.462;2024-01-30T00:39:42;44.75;34.00;20.75
78512;PMS5003;67809;55.034;73.462;2024-01-30T00:42:09;46.25;35.00;22.00
78512;PMS5003;67809;55.034;73.462;2024-01-30T00:44:35;47.25;34.25;20.75
78512;PMS5003;67809;55.034;73.462;2024-01-30T00:47:04;53.75;38.25;23.25
78512;PMS5003;67809;55.034;73.462;2024-01-30T00:49:31;46.00;33.25;20.00
78512;PMS5003;67809;55.034;73.462;2024-01-30T00:51:57;45.75;33.75;20.25
78512;PMS5003;67809;55.034;73.462;2024-01-30T00:54:23;50.75;35.00;21.25
78512;PMS5003;67809;55.034;73.462;2024-01-30T00:56:49;46.00;33.00;20.00
78512;PMS5003;67809;55.034;73.462;2024-01-30T00:59:23;46.50;35.50;22.00
78512;PMS5003;67809;55.034;73.462;2024-01-30T01:01:49;40.00;31.25;21.00
78512;PMS5003;67809;55.034;73.462;2024-01-30T01:04:16;47.50;34.50;20.50
78512;PMS5003;67809;55.034;73.462;2024-01-30T01:06:44;46.50;33.75;20.25
78512;PMS5003;67809;55.034;73.462;2024-01-30T01:09:11;41.50;32.00;20.00
78512;PMS5003;67809;55.034;73.462;2024-01-30T01:11:42;43.25;33.50;20.50
78512;PMS5003;67809;55.034;73.462;2024-01-30T01:14:09;50.00;36.00;21.00
78512;PMS5003;67809;55.034;73.462;2024-01-30T01:16:35;41.50;31.00;19.25
78512;PMS5003;67809;55.034;73.462;2024-01-30T01:19:01;44.50;32.50;18.50
78512;PMS5003;67809;55.034;73.462;2024-01-30T01:21:28;43.25;32.00;20.00
78512;PMS5003;67809;55.034;73.462;2024-01-30T01:23:54;44.00;33.75;21.00
78512;PMS5003;67809;55.034;73.462;2024-01-30T01:26:20;44.25;33.50;20.00
78512;PMS5003;67809;55.034;73.462;2024-01-30T01:28:47;49.00;35.00;22.00
78512;PMS5003;67809;55.034;73.462;2024-01-30T01:31:14;43.75;33.00;20.00
78512;PMS5003;67809;55.034;73.462;2024-01-30T01:33:40;46.75;32.75;20.25
78512;PMS5003;67809;55.034;73.462;2024-01-30T01:36:06;44.75;32.50;20.00
78512;PMS5003;67809;55.034;73.462;2024-01-30T01:38:32;45.00;34.25;22.00
78512;PMS5003;67809;55.034;73.462;2024-01-30T01:40:58;47.00;36.00;21.00
78512;PMS5003;67809;55.034;73.462;2024-01-30T01:43:25;48.50;35.50;21.75
78512;PMS5003;67809;55.034;73.462;2024-01-30T01:45:51;50.00;35.00;23.00
78512;PMS5003;67809;55.034;73.462;2024-01-30T01:48:17;48.00;33.25;19.00
78512;PMS5003;67809;55.034;73.462;2024-01-30T01:50:44;42.00;32.33;20.00
78512;PMS5003;67809;55.034;73.462;2024-01-30T01:53:11;42.25;31.25;19.00
78512;PMS5003;67809;55.034;73.462;2024-01-30T01:55:47;44.25;32.75;19.00
78512;PMS5003;67809;55.034;73.462;2024-01-30T01:58:13;42.50;32.00;19.00
78512;PMS5003;67809;55.034;73.462;2024-01-30T02:00:40;43.00;34.00;21.00
78512;PMS5003;67809;55.034;73.462;2024-01-30T02:03:08;47.00;34.50;21.25
78512;PMS5003;67809;55.034;73.462;2024-01-30T02:05:34;46.75;34.50;19.50
78512;PMS5003;67809;55.034;73.462;2024-01-30T02:08:00;54.00;38.50;22.75
78512;PMS5003;67809;55.034;73.462;2024-01-30T02:10:31;49.25;36.50;22.00
78512;PMS5003;67809;55.034;73.462;2024-01-30T02:12:57;51.00;37.50;23.75
78512;PMS5003;67809;55.034;73.462;2024-01-30T02:15:27;49.25;37.50;22.00
78512;PMS5003;67809;55.034;73.462;2024-01-30T02:17:53;55.50;39.00;23.50
78512;PMS5003;67809;55.034;73.462;2024-01-30T02:20:22;55.00;39.00;23.33
78512;PMS5003;67809;55.034;73.462;2024-01-30T02:22:49;59.50;41.25;25.50
78512;PMS5003;67809;55.034;73.462;2024-01-30T02:25:16;64.25;45.50;28.00
78512;PMS5003;67809;55.034;73.462;2024-01-30T02:27:42;60.25;42.50;26.25
78512;PMS5003;67809;55.034;73.462;2024-01-30T02:30:11;68.00;50.00;29.00
78512;PMS5003;67809;55.034;73.462;2024-01-30T02:32:38;62.50;46.50;28.50
78512;PMS5003;67809;55.034;73.462;2024-01-30T02:35:04;51.00;37.00;22.50
78512;PMS5003;67809;55.034;73.462;2024-01-30T02:37:30;57.00;42.00;24.00
78512;PMS5003;67809;55.034;73.462;2024-01-30T02:39:56;57.00;39.50;24.25
78512;PMS5003;67809;55.034;73.462;2024-01-30T02:42:22;50.00;39.00;24.00
78512;PMS5003;67809;55.034;73.462;2024-01-30T02:44:48;57.50;39.50;22.75
78512;PMS5003;67809;55.034;73.462;2024-01-30T02:47:14;54.50;38.50;23.25
78512;PMS5003;67809;55.034;73.462;2024-01-30T02:49:41;49.75;35.50;21.00
78512;PMS5003;67809;55.034;73.462;2024-01-30T02:52:07;55.00;40.00;22.50
78512;PMS5003;67809;55.034;73.462;2024-01-30T02:54:33;51.50;38.75;23.75
78512;PMS5003;67809;55.034;73.462;2024-01-30T02:56:59;48.50;36.50;22.50
78512;PMS5003;67809;55.034;73.462;2024-01-30T02:59:25;48.25;35.50;21.50
78512;PMS5003;67809;55.034;73.462;2024-01-30T03:01:51;45.00;33.33;18.67
78512;PMS5003;67809;55.034;73.462;2024-01-30T03:04:18;49.50;36.25;21.50
78512;PMS5003;67809;55.034;73.462;2024-01-30T03:06:44;52.00;38.00;22.25
78512;PMS5003;67809;55.034;73.462;2024-01-30T03:09:11;50.00;33.50;20.00
78512;PMS5003;67809;55.034;73.462;2024-01-30T03:11:37;41.00;32.33;19.00
78512;PMS5003;67809;55.034;73.462;2024-01-30T03:14:03;53.75;37.50;22.00
78512;PMS5003;67809;55.034;73.462;2024-01-30T03:16:30;56.00;40.25;24.00
78512;PMS5003;67809;55.034;73.462;2024-01-30T03:18:56;55.50;38.50;23.50
78512;PMS5003;67809;55.034;73.462;2024-01-30T03:21:22;62.00;41.75;23.75
78512;PMS5003;67809;55.034;73.462;2024-01-30T03:23:48;54.50;38.25;23.25
78512;PMS5003;67809;55.034;73.462;2024-01-30T03:26:15;51.50;37.75;22.00
78512;PMS5003;67809;55.034;73.462;2024-01-30T03:28:41;50.75;37.00;21.75
78512;PMS5003;67809;55.034;73.462;2024-01-30T03:31:08;47.67;34.67;21.00
78512;PMS5003;67809;55.034;73.462;2024-01-30T03:33:34;53.00;38.25;24.75
78512;PMS5003;67809;55.034;73.462;2024-01-30T03:36:02;50.50;36.75;20.75
78512;PMS5003;67809;55.034;73.462;2024-01-30T03:38:29;53.50;39.00;23.75
78512;PMS5003;67809;55.034;73.462;2024-01-30T03:40:55;47.00;36.33;21.00
78512;PMS5003;67809;55.034;73.462;2024-01-30T03:43:21;62.50;45.00;26.50
78512;PMS5003;67809;55.034;73.462;2024-01-30T03:45:47;53.00;39.00;23.25
78512;PMS5003;67809;55.034;73.462;2024-01-30T03:48:13;56.50;42.00;26.00
78512;PMS5003;67809;55.034;73.462;2024-01-30T03:50:40;61.00;43.00;25.75
78512;PMS5003;67809;55.034;73.462;2024-01-30T03:53:06;54.67;39.67;25.00
78512;PMS5003;67809;55.034;73.462;2024-01-30T03:55:32;59.25;41.25;26.00
78512;PMS5003;67809;55.034;73.462;2024-01-30T03:57:58;53.75;38.50;23.50
78512;PMS5003;67809;55.034;73.462;2024-01-30T04:00:24;54.75;40.50;25.25
78512;PMS5003;67809;55.034;73.462;2024-01-30T04:02:51;49.75;35.75;21.50
78512;PMS5003;67809;55.034;73.462;2024-01-30T04:05:18;48.75;38.25;24.00
78512;PMS5003;67809;55.034;73.462;2024-01-30T04:07:44;59.00;43.25;25.75
78512;PMS5003;67809;55.034;73.462;2024-01-30T04:10:10;58.00;43.00;26.00
78512;PMS5003;67809;55.034;73.462;2024-01-30T04:12:36;53.00;37.00;23.00
78512;PMS5003;67809;55.034;73.462;2024-01-30T04:15:03;58.00;40.50;24.50
78512;PMS5003;67809;55.034;73.462;2024-01-30T04:17:31;46.75;35.50;21.25
78512;PMS5003;67809;55.034;73.462;2024-01-30T04:19:58;55.75;40.50;24.25
78512;PMS5003;67809;55.034;73.462;2024-01-30T04:22:24;58.33;42.00;26.67
78512;PMS5003;67809;55.034;73.462;2024-01-30T04:24:50;53.25;41.00;26.00
78512;PMS5003;67809;55.034;73.462;2024-01-30T04:27:17;53.25;39.00;25.00
78512;PMS5003;67809;55.034;73.462;2024-01-30T04:29:43;46.25;34.50;20.50
78512;PMS5003;67809;55.034;73.462;2024-01-30T04:32:09;44.75;34.00;20.75
78512;PMS5003;67809;55.034;73.462;2024-01-30T04:34:36;56.75;41.25;24.50
78512;PMS5003;67809;55.034;73.462;2024-01-30T04:37:02;51.75;38.00;22.75
78512;PMS5003;67809;55.034;73.462;2024-01-30T04:39:28;64.00;44.00;27.00
78512;PMS5003;67809;55.034;73.462;2024-01-30T04:41:54;44.00;35.00;22.33
78512;PMS5003;67809;55.034;73.462;2024-01-30T04:44:21;50.50;37.25;23.00
78512;PMS5003;67809;55.034;73.462;2024-01-30T04:46:47;55.50;40.00;25.00
78512;PMS5003;67809;55.034;73.462;2024-01-30T04:49:13;53.75;39.50;24.25
78512;PMS5003;67809;55.034;73.462;2024-01-30T04:51:39;54.67;40.00;25.33
78512;PMS5003;67809;55.034;73.462;2024-01-30T04:54:09;56.25;41.50;28.00
78512;PMS5003;67809;55.034;73.462;2024-01-30T04:56:35;49.50;36.00;23.50
78512;PMS5003;67809;55.034;73.462;2024-01-30T04:59:02;50.50;38.25;23.25
78512;PMS5003;67809;55.034;73.462;2024-01-30T05:01:32;57.33;43.00;27.00
78512;PMS5003;67809;55.034;73.462;2024-01-30T05:03:58;49.00;36.25;24.00
78512;PMS5003;67809;55.034;73.462;2024-01-30T05:06:25;49.00;38.00;23.25
78512;PMS5003;67809;55.034;73.462;2024-01-30T05:08:51;50.25;38.50;23.50
78512;PMS5003;67809;55.034;73.462;2024-01-30T05:11:22;57.50;42.25;25.75
78512;PMS5003;67809;55.034;73.462;2024-01-30T05:13:48;56.00;39.33;23.67
78512;PMS5003;67809;55.034;73.462;2024-01-30T05:16:17;51.50;39.00;24.00
78512;PMS5003;67809;55.034;73.462;2024-01-30T05:18:43;53.50;38.00;22.75
78512;PMS5003;67809;55.034;73.462;2024-01-30T05:21:10;44.50;33.75;20.50
78512;PMS5003;67809;55.034;73.462;2024-01-30T05:23:37;46.00;34.67;22.00
78512;PMS5003;67809;55.034;73.462;2024-01-30T05:26:03;45.75;32.50;21.50
78512;PMS5003;67809;55.034;73.462;2024-01-30T05:28:29;53.75;39.75;24.25
78512;PMS5003;67809;55.034;73.462;2024-01-30T05:30:56;54.50;39.25;23.50
78512;PMS5003;67809;55.034;73.462;2024-01-30T05:33:22;56.00;39.67;23.67
78512;PMS5003;67809;55.034;73.462;2024-01-30T05:35:48;62.50;45.25;28.75
78512;PMS5003;67809;55.034;73.462;2024-01-30T05:38:15;68.00;50.00;29.75
78512;PMS5003;67809;55.034;73.462;2024-01-30T05:40:41;67.25;48.50;30.00
78512;PMS5003;67809;55.034;73.462;2024-01-30T05:43:08;76.33;55.00;33.33
78512;PMS5003;67809;55.034;73.462;2024-01-30T05:45:34;86.00;64.00;39.50
78512;PMS5003;67809;55.034;73.462;2024-01-30T05:48:03;79.25;59.00;35.00
78512;PMS5003;67809;55.034;73.462;2024-01-30T05:50:30;78.25;62.00;35.25
78512;PMS5003;67809;55.034;73.462;2024-01-30T05:52:56;77.00;58.75;33.00
78512;PMS5003;67809;55.034;73.462;2024-01-30T05:55:23;78.50;58.00;34.00
78512;PMS5003;67809;55.034;73.462;2024-01-30T05:57:49;77.50;58.00;34.75
78512;PMS5003;67809;55.034;73.462;2024-01-30T06:00:16;79.50;59.00;34.25
78512;PMS5003;67809;55.034;73.462;2024-01-30T06:02:43;78.75;61.75;35.25
78512;PMS5003;67809;55.034;73.462;2024-01-30T06:05:09;90.50;64.00;36.00
78512;PMS5003;67809;55.034;73.462;2024-01-30T06:07:35;90.50;69.00;42.00
78512;PMS5003;67809;55.034;73.462;2024-01-30T06:10:01;86.00;64.50;38.25
78512;PMS5003;67809;55.034;73.462;2024-01-30T06:12:28;80.33;59.67;33.67
78512;PMS5003;67809;55.034;73.462;2024-01-30T06:14:55;81.25;57.00;33.75
78512;PMS5003;67809;55.034;73.462;2024-01-30T06:17:23;78.75;58.00;34.00
78512;PMS5003;67809;55.034;73.462;2024-01-30T06:19:49;82.00;63.50;36.50
78512;PMS5003;67809;55.034;73.462;2024-01-30T06:22:15;93.00;71.00;40.00
78512;PMS5003;67809;55.034;73.462;2024-01-30T06:24:42;79.50;60.50;36.25
78512;PMS5003;67809;55.034;73.462;2024-01-30T06:27:10;87.50;64.00;39.25
78512;PMS5003;67809;55.034;73.462;2024-01-30T06:29:37;87.00;62.25;36.50
78512;PMS5003;67809;55.034;73.462;2024-01-30T06:32:04;95.00;69.50;40.75
78512;PMS5003;67809;55.034;73.462;2024-01-30T06:34:33;79.00;59.00;34.00
78512;PMS5003;67809;55.034;73.462;2024-01-30T06:37:00;74.00;53.50;32.50
78512;PMS5003;67809;55.034;73.462;2024-01-30T06:39:26;74.75;53.00;32.25
78512;PMS5003;67809;55.034;73.462;2024-01-30T06:41:52;75.00;53.25;33.00
78512;PMS5003;67809;55.034;73.462;2024-01-30T06:44:19;76.67;53.00;31.00
78512;PMS5003;67809;55.034;73.462;2024-01-30T06:46:45;75.00;52.25;32.00
78512;PMS5003;67809;55.034;73.462;2024-01-30T06:49:11;62.00;46.50;29.50
78512;PMS5003;67809;55.034;73.462;2024-01-30T06:51:37;73.00;53.50;32.25
78512;PMS5003;67809;55.034;73.462;2024-01-30T06:54:04;75.00;52.75;32.75
78512;PMS5003;67809;55.034;73.462;2024-01-30T06:56:30;64.75;47.25;29.00
78512;PMS5003;67809;55.034;73.462;2024-01-30T06:58:56;67.25;48.50;29.25
78512;PMS5003;67809;55.034;73.462;2024-01-30T07:01:27;68.50;50.00;31.00
78512;PMS5003;67809;55.034;73.462;2024-01-30T07:03:53;64.33;49.00;30.00
78512;PMS5003;67809;55.034;73.462;2024-01-30T07:06:20;67.00;49.00;31.00
78512;PMS5003;67809;55.034;73.462;2024-01-30T07:08:47;70.25;51.00;31.75
78512;PMS5003;67809;55.034;73.462;2024-01-30T07:11:19;69.75;50.75;30.75
78512;PMS5003;67809;55.034;73.462;2024-01-30T07:13:47;66.00;48.25;30.00
78512;PMS5003;67809;55.034;73.462;2024-01-30T07:16:14;74.50;51.00;32.00
78512;PMS5003;67809;55.034;73.462;2024-01-30T07:18:41;75.00;54.75;33.75
78512;PMS5003;67809;55.034;73.462;2024-01-30T07:21:07;77.00;57.75;34.00
78512;PMS5003;67809;55.034;73.462;2024-01-30T07:23:33;73.67;54.00;32.33
78512;PMS5003;67809;55.034;73.462;2024-01-30T07:26:03;80.75;58.00;34.00
78512;PMS5003;67809;55.034;73.462;2024-01-30T07:28:29;77.25;57.25;35.25
78512;PMS5003;67809;55.034;73.462;2024-01-30T07:31:04;63.25;47.50;29.75
78512;PMS5003;67809;55.034;73.462;2024-01-30T07:33:30;67.00;46.67;29.67
78512;PMS5003;67809;55.034;73.462;2024-01-30T07:35:57;67.25;49.25;31.25
78512;PMS5003;67809;55.034;73.462;2024-01-30T07:38:23;66.75;48.00;30.00
78512;PMS5003;67809;55.034;73.462;2024-01-30T07:40:52;67.50;48.50;30.00
78512;PMS5003;67809;55.034;73.462;2024-01-30T07:43:24;65.33;48.00;30.67
78512;PMS5003;67809;55.034;73.462;2024-01-30T07:45:50;66.00;49.00;30.25
78512;PMS5003;67809;55.034;73.462;2024-01-30T07:48:17;65.50;48.00;29.75
78512;PMS5003;67809;55.034;73.462;2024-01-30T07:50:43;64.50;48.25;30.00
78512;PMS5003;67809;55.034;73.462;2024-01-30T07:53:09;64.25;49.00;30.00
78512;PMS5003;67809;55.034;73.462;2024-01-30T07:55:36;68.75;50.00;30.50
78512;PMS5003;67809;55.034;73.462;2024-01-30T07:58:02;65.00;48.25;31.00
78512;PMS5003;67809;55.034;73.462;2024-01-30T08:00:30;61.00;45.75;28.00
78512;PMS5003;67809;55.034;73.462;2024-01-30T08:02:57;62.50;45.00;28.00
78512;PMS5003;67809;55.034;73.462;2024-01-30T08:05:23;59.50;43.75;27.00
78512;PMS5003;67809;55.034;73.462;2024-01-30T08:07:49;53.75;40.50;25.00
78512;PMS5003;67809;55.034;73.462;2024-01-30T08:10:16;67.75;49.25;30.00
78512;PMS5003;67809;55.034;73.462;2024-01-30T08:12:44;58.75;44.25;27.00
78512;PMS5003;67809;55.034;73.462;2024-01-30T08:15:15;68.00;46.33;28.00
78512;PMS5003;67809;55.034;73.462;2024-01-30T08:17:41;64.00;47.00;28.00
78512;PMS5003;67809;55.034;73.462;2024-01-30T08:20:08;67.50;48.00;29.25
78512;PMS5003;67809;55.034;73.462;2024-01-30T08:22:37;66.00;48.75;29.25
78512;PMS5003;67809;55.034;73.462;2024-01-30T08:25:04;70.00;50.33;31.33
78512;PMS5003;67809;55.034;73.462;2024-01-30T08:27:30;71.50;52.00;31.00
78512;PMS5003;67809;55.034;73.462;2024-01-30T08:29:56;68.25;49.25;32.00
78512;PMS5003;67809;55.034;73.462;2024-01-30T08:32:23;72.00;50.50;32.00
78512;PMS5003;67809;55.034;73.462;2024-01-30T08:34:49;59.00;45.33;27.33
78512;PMS5003;67809;55.034;73.462;2024-01-30T08:37:22;67.25;47.25;29.00
78512;PMS5003;67809;55.034;73.462;2024-01-30T08:39:50;75.50;55.00;34.00
78512;PMS5003;67809;55.034;73.462;2024-01-30T08:42:16;65.75;47.25;29.50
78512;PMS5003;67809;55.034;73.462;2024-01-30T08:44:48;72.33;51.67;32.33
78512;PMS5003;67809;55.034;73.462;2024-01-30T08:47:15;64.00;47.50;29.00
78512;PMS5003;67809;55.034;73.462;2024-01-30T08:49:43;60.75;44.50;27.50
78512;PMS5003;67809;55.034;73.462;2024-01-30T08:52:12;60.00;44.00;27.00
78512;PMS5003;67809;55.034;73.462;2024-01-30T08:54:39;65.00;47.67;28.00
78512;PMS5003;67809;55.034;73.462;2024-01-30T08:57:05;58.50;44.00;27.25
78512;PMS5003;67809;55.034;73.462;2024-01-30T08:59:32;71.50;51.00;32.00
78512;PMS5003;67809;55.034;73.462;2024-01-30T09:01:59;79.50;57.50;34.50
78512;PMS5003;67809;55.034;73.462;2024-01-30T09:04:25;72.00;52.00;32.00
78512;PMS5003;67809;55.034;73.462;2024-01-30T09:06:52;74.00;52.00;32.00
78512;PMS5003;67809;55.034;73.462;2024-01-30T09:09:18;73.50;51.50;32.00
78512;PMS5003;67809;55.034;73.462;2024-01-30T09:11:53;67.50;48.75;29.75
78512;PMS5003;67809;55.034;73.462;2024-01-30T09:14:20;62.67;45.33;29.00
78512;PMS5003;67809;55.034;73.462;2024-01-30T09:16:46;70.00;48.50;29.75
78512;PMS5003;67809;55.034;73.462;2024-01-30T09:19:34;68.25;49.25;30.00
78512;PMS5003;67809;55.034;73.462;2024-01-30T09:22:00;63.00;46.00;30.00
78512;PMS5003;67809;55.034;73.462;2024-01-30T09:24:26;63.00;46.00;27.33
78512;PMS5003;67809;55.034;73.462;2024-01-30T09:26:52;55.50;41.00;25.00
78512;PMS5003;67809;55.034;73.462;2024-01-30T09:29:19;62.00;44.00;27.50
78512;PMS5003;67809;55.034;73.462;2024-01-30T09:31:46;60.75;45.00;26.75
78512;PMS5003;67809;55.034;73.462;2024-01-30T09:34:12;61.25;46.00;29.00
78512;PMS5003;67809;55.034;73.462;2024-01-30T09:36:39;62.50;43.75;26.00
78512;PMS5003;67809;55.034;73.462;2024-01-30T09:39:05;58.00;43.25;26.75
78512;PMS5003;67809;55.034;73.462;2024-01-30T09:41:32;54.75;40.00;25.25
78512;PMS5003;67809;55.034;73.462;2024-01-30T09:44:01;50.00;37.00;23.00
78512;PMS5003;67809;55.034;73.462;2024-01-30T09:46:32;53.67;40.00;25.33
78512;PMS5003;67809;55.034;73.462;2024-01-30T09:49:00;52.00;38.75;24.00
78512;PMS5003;67809;55.034;73.462;2024-01-30T09:51:28;53.75;40.50;24.75
78512;PMS5003;67809;55.034;73.462;2024-01-30T09:53:58;57.50;41.75;25.75
78512;PMS5003;67809;55.034;73.462;2024-01-30T09:56:24;60.00;44.75;28.00
78512;PMS5003;67809;55.034;73.462;2024-01-30T09:58:52;61.00;44.00;27.75
78512;PMS5003;67809;55.034;73.462;2024-01-30T10:01:18;61.50;45.00;28.00
78512;PMS5003;67809;55.034;73.462;2024-01-30T10:03:46;57.00;41.00;26.25
78512;PMS5003;67809;55.034;73.462;2024-01-30T10:06:12;58.00;42.25;26.00
78512;PMS5003;67809;55.034;73.462;2024-01-30T10:08:41;61.75;45.00;28.25
78512;PMS5003;67809;55.034;73.462;2024-01-30T10:11:16;61.00;45.75;27.75
78512;PMS5003;67809;55.034;73.462;2024-01-30T10:13:45;64.00;47.00;28.00
78512;PMS5003;67809;55.034;73.462;2024-01-30T10:16:13;62.25;44.50;28.00
78512;PMS5003;67809;55.034;73.462;2024-01-30T10:18:40;73.25;52.00;32.00
78512;PMS5003;67809;55.034;73.462;2024-01-30T10:21:07;63.75;47.25;28.75
78512;PMS5003;67809;55.034;73.462;2024-01-30T10:23:33;68.75;50.00;31.00
78512;PMS5003;67809;55.034;73.462;2024-01-30T10:26:00;70.00;49.33;30.00
78512;PMS5003;67809;55.034;73.462;2024-01-30T10:28:29;68.50;50.25;30.50
78512;PMS5003;67809;55.034;73.462;2024-01-30T10:30:59;68.50;49.00;30.00
78512;PMS5003;67809;55.034;73.462;2024-01-30T10:33:26;66.00;48.00;30.00
78512;PMS5003;67809;55.034;73.462;2024-01-30T10:35:55;61.50;45.75;29.50
78512;PMS5003;67809;55.034;73.462;2024-01-30T10:38:45;63.50;47.50;29.25
78512;PMS5003;67809;55.034;73.462;2024-01-30T10:41:13;64.00;47.00;28.75
78512;PMS5003;67809;55.034;73.462;2024-01-30T10:43:42;68.50;48.00;30.25
78512;PMS5003;67809;55.034;73.462;2024-01-30T10:46:18;65.00;47.67;28.33
78512;PMS5003;67809;55.034;73.462;2024-01-30T10:48:46;65.75;47.50;29.75
78512;PMS5003;67809;55.034;73.462;2024-01-30T10:51:16;70.75;50.75;31.75
78512;PMS5003;67809;55.034;73.462;2024-01-30T10:53:46;68.75;49.00;31.00
78512;PMS5003;67809;55.034;73.462;2024-01-30T10:56:12;61.00;45.00;27.00
78512;PMS5003;67809;55.034;73.462;2024-01-30T10:58:39;62.00;45.00;28.00
78512;PMS5003;67809;55.034;73.462;2024-01-30T11:01:07;61.00;44.25;26.50
78512;PMS5003;67809;55.034;73.462;2024-01-30T11:03:33;58.25;41.75;25.50
78512;PMS5003;67809;55.034;73.462;2024-01-30T11:06:02;55.50;41.25;25.25
78512;PMS5003;67809;55.034;73.462;2024-01-30T11:08:31;63.00;47.00;28.00
78512;PMS5003;67809;55.034;73.462;2024-01-30T11:10:58;55.00;42.00;26.00
78512;PMS5003;67809;55.034;73.462;2024-01-30T11:13:29;63.50;46.25;28.25
78512;PMS5003;67809;55.034;73.462;2024-01-30T11:15:55;61.50;46.50;28.50
78512;PMS5003;67809;55.034;73.462;2024-01-30T11:18:25;71.50;51.00;30.50
78512;PMS5003;67809;55.034;73.462;2024-01-30T11:20:52;64.50;47.75;30.00
78512;PMS5003;67809;55.034;73.462;2024-01-30T11:23:18;58.50;43.00;26.00
78512;PMS5003;67809;55.034;73.462;2024-01-30T11:25:44;65.00;47.75;27.75
78512;PMS5003;67809;55.034;73.462;2024-01-30T11:28:14;65.00;47.00;29.25
78512;PMS5003;67809;55.034;73.462;2024-01-30T11:31:02;59.25;45.00;28.00
78512;PMS5003;67809;55.034;73.462;2024-01-30T11:33:29;68.00;48.00;30.00
78512;PMS5003;67809;55.034;73.462;2024-01-30T11:35:58;66.33;48.00;29.00
78512;PMS5003;67809;55.034;73.462;2024-01-30T11:38:32;68.75;49.00;29.50
78512;PMS5003;67809;55.034;73.462;2024-01-30T11:40:59;67.00;49.25;29.50
78512;PMS5003;67809;55.034;73.462;2024-01-30T11:43:26;67.50;48.75;29.00
78512;PMS5003;67809;55.034;73.462;2024-01-30T11:45:52;72.67;52.00;31.67
78512;PMS5003;67809;55.034;73.462;2024-01-30T11:48:19;67.25;49.00;30.75
78512;PMS5003;67809;55.034;73.462;2024-01-30T11:50:48;62.75;46.00;29.00
78512;PMS5003;67809;55.034;73.462;2024-01-30T11:53:14;63.75;46.50;29.50
78512;PMS5003;67809;55.034;73.462;2024-01-30T11:55:41;68.25;48.50;30.00
78512;PMS5003;67809;55.034;73.462;2024-01-30T11:58:08;71.00;50.00;31.50
78512;PMS5003;67809;55.034;73.462;2024-01-30T12:00:34;71.25;51.25;31.00
78512;PMS5003;67809;55.034;73.462;2024-01-30T12:03:00;63.00;46.00;28.00
78512;PMS5003;67809;55.034;73.462;2024-01-30T12:05:30;61.00;46.00;29.00
78512;PMS5003;67809;55.034;73.462;2024-01-30T12:07:56;62.00;45.00;28.00
78512;PMS5003;67809;55.034;73.462;2024-01-30T12:10:31;56.50;42.00;26.25
78512;PMS5003;67809;55.034;73.462;2024-01-30T12:12:58;60.00;43.50;26.50
78512;PMS5003;67809;55.034;73.462;2024-01-30T12:15:27;57.25;42.50;27.25
78512;PMS5003;67809;55.034;73.462;2024-01-30T12:18:14;54.00;39.67;25.00
78512;PMS5003;67809;55.034;73.462;2024-01-30T12:20:40;52.50;39.00;24.00
78512;PMS5003;67809;55.034;73.462;2024-01-30T12:23:11;48.50;37.00;23.00
78512;PMS5003;67809;55.034;73.462;2024-01-30T12:25:38;54.00;39.00;24.00
78512;PMS5003;67809;55.034;73.462;2024-01-30T12:28:24;52.67;38.33;22.33
78512;PMS5003;67809;55.034;73.462;2024-01-30T12:31:10;54.00;40.00;25.00
78512;PMS5003;67809;55.034;73.462;2024-01-30T12:33:36;56.75;42.25;26.25
78512;PMS5003;67809;55.034;73.462;2024-01-30T12:36:02;79.00;59.75;36.50
78512;PMS5003;67809;55.034;73.462;2024-01-30T12:38:46;58.00;43.33;26.33
78512;PMS5003;67809;55.034;73.462;2024-01-30T12:41:12;61.00;44.00;27.50
78512;PMS5003;67809;55.034;73.462;2024-01-30T12:43:39;60.00;43.50;27.75
78512;PMS5003;67809;55.034;73.462;2024-01-30T12:46:05;56.50;40.75;25.25
78512;PMS5003;67809;55.034;73.462;2024-01-30T12:48:31;56.33;41.33;25.67
78512;PMS5003;67809;55.034;73.462;2024-01-30T12:50:58;60.50;45.25;27.75
78512;PMS5003;67809;55.034;73.462;2024-01-30T12:53:26;58.50;43.25;28.00
78512;PMS5003;67809;55.034;73.462;2024-01-30T12:55:52;62.25;45.50;27.50
78512;PMS5003;67809;55.034;73.462;2024-01-30T12:58:22;54.00;39.67;25.67
78512;PMS5003;67809;55.034;73.462;2024-01-30T13:00:48;57.00;40.75;25.00
78512;PMS5003;67809;55.034;73.462;2024-01-30T13:03:14;52.50;38.00;24.00
78512;PMS5003;67809;55.034;73.462;2024-01-30T13:05:41;56.75;40.75;25.25
78512;PMS5003;67809;55.034;73.462;2024-01-30T13:08:08;54.00;41.33;26.33
78512;PMS5003;67809;55.034;73.462;2024-01-30T13:10:34;57.25;42.00;25.75
78512;PMS5003;67809;55.034;73.462;2024-01-30T13:13:01;56.50;41.25;25.50
78512;PMS5003;67809;55.034;73.462;2024-01-30T13:15:28;55.50;41.00;26.00
78512;PMS5003;67809;55.034;73.462;2024-01-30T13:17:54;56.00;41.33;25.67
78512;PMS5003;67809;55.034;73.462;2024-01-30T13:20:20;59.00;44.25;26.00
78512;PMS5003;67809;55.034;73.462;2024-01-30T13:22:48;57.00;42.50;24.75
78512;PMS5003;67809;55.034;73.462;2024-01-30T13:25:15;57.50;43.50;27.75
78512;PMS5003;67809;55.034;73.462;2024-01-30T13:27:42;60.00;44.67;28.00
78512;PMS5003;67809;55.034;73.462;2024-01-30T13:30:17;62.00;45.50;28.50
78512;PMS5003;67809;55.034;73.462;2024-01-30T13:32:44;66.25;48.25;30.25
78512;PMS5003;67809;55.034;73.462;2024-01-30T13:35:10;76.00;51.00;31.75